Skip Navigation LinksHome page > Weather > Current weather Skip Navigation Links

Current Weather

Jakutsk, Russia

For information only: do not use for flight planning or navigation.
Latest weather
Observation time Monday, October 20, 2014 8:00 PM JST
Local time Monday, October 20, 2014 8:19 PM JST
Flight conditions Visual Meteorological Conditions
Winds
Wind direction West-Northwest (300°)
Wind speed 8 mph
Wind gusting to 27 mph
Visibility 6.2 mi.
Present weather light snow showers, drifting snow
Sky condition
Ceiling 10,000 ft. overcast
Cloud layer scattered clouds with cumulonimbus 2,600 ft.
Cloud layer overcast 10,000 ft.
Temperature 12°F
Dewpoint 7°F
Altimeter 29.41 in.Hg
Precipitation
QF 8:18 AM
Derived measurements
Relative humidity 78%
Wind chill 1°F
Density altitude -2285 ft.
Remarks
No significant changes expected in the next two hours.
METAR UEEE 201100Z 30007G12MPS 9999 -SHSN DRSN SCT026CB OVC100 M11/M14 Q0996 NOSIG RMK QFE738 23490150

Settings

Location code

InnerDrive.Weather 4.0.5399.0 Release CLR 4.0.30319.34014
Copyright ©2014 Inner Drive Technology. All rights reserved. Portions Copyright ©1986-2014 David Braverman.

Find weather

Site navigation


Skip Navigation Links

Place info

Page info

PayPal - The safer, easier way to pay online!

Return home.

Copyright ©2014 Inner Drive Technology. Purveyors of fine, hand-crafted computer software. Page printed 2014-10-20T11:19:39 UTC.